Time;durP1;ratioP1;P1;durP2;ratioP2;P2;SDS_P1;SDS_P2;PMS_P1;PMS_P2;Temp;Humidity;BMP_temperature;BMP_pressure;BME280_temperature;BME280_humidity;BME280_pressure;Samples;Min_cycle;Max_cycle;Signal;HPM_P1;HPM_P2
2021/06/30 00:01:34;;;;;;;5.62;5.08;;;;;;;18.84;69.72;99065.70;1722911;82;21004;-44
2021/06/30 00:04:00;;;;;;;9.20;4.67;;;;;;;18.82;69.96;99066.74;1712853;82;21045;-44
2021/06/30 00:06:27;;;;;;;6.90;5.12;;;;;;;18.72;70.14;99073.20;1716009;82;21118;-44
2021/06/30 00:08:54;;;;;;;5.10;4.42;;;;;;;18.59;70.36;99073.81;1707904;82;21009;-43
2021/06/30 00:11:22;;;;;;;5.60;4.53;;;;;;;18.53;70.48;99081.00;1709024;82;20970;-43
2021/06/30 00:13:49;;;;;;;6.95;4.62;;;;;;;18.56;70.56;99087.02;1722926;82;21506;-43
2021/06/30 00:16:18;;;;;;;7.20;4.87;;;;;;;18.57;70.47;99091.91;1711256;82;20937;-44
2021/06/30 00:18:44;;;;;;;6.28;4.67;;;;;;;18.51;70.69;99091.58;1714322;82;21158;-43
2021/06/30 00:21:11;;;;;;;8.68;4.72;;;;;;;18.48;70.62;99092.43;1730258;82;20989;-43
2021/06/30 00:23:38;;;;;;;5.62;4.47;;;;;;;18.53;70.52;99091.98;1716221;83;21795;-43
2021/06/30 00:26:04;;;;;;;7.83;4.35;;;;;;;18.64;70.42;99089.80;1703050;83;21017;-44
2021/06/30 00:28:31;;;;;;;4.60;4.20;;;;;;;18.75;70.27;99090.98;1702245;84;21053;-44
2021/06/30 00:30:58;;;;;;;6.42;5.10;;;;;;;18.83;70.13;99093.02;1706224;83;21136;-44
2021/06/30 00:33:27;;;;;;;7.40;4.90;;;;;;;18.84;69.90;99087.08;1724742;82;20972;-44
2021/06/30 00:35:53;;;;;;;5.12;4.70;;;;;;;18.83;70.03;99080.66;1708259;83;20933;-43
2021/06/30 00:38:21;;;;;;;5.33;4.83;;;;;;;18.85;69.85;99076.28;1701323;83;21584;-43
2021/06/30 00:40:48;;;;;;;7.30;5.17;;;;;;;18.92;69.59;99078.13;1698050;83;21104;-43
2021/06/30 00:43:18;;;;;;;5.50;5.00;;;;;;;18.96;69.57;99073.33;1701623;83;21069;-44
2021/06/30 00:45:44;;;;;;;6.05;5.12;;;;;;;18.98;69.26;99072.30;1650340;83;21045;-43
2021/06/30 00:48:11;;;;;;;6.20;5.50;;;;;;;18.99;68.78;99070.50;1715014;82;20928;-43
2021/06/30 00:50:38;;;;;;;9.40;5.80;;;;;;;19.00;68.61;99070.69;1719001;83;21621;-43
2021/06/30 00:53:05;;;;;;;7.37;5.30;;;;;;;19.00;68.17;99069.31;1691116;83;21046;-44
2021/06/30 00:55:32;;;;;;;6.42;5.58;;;;;;;19.01;68.23;99070.09;1701135;83;21162;-44
2021/06/30 00:57:59;;;;;;;9.05;5.85;;;;;;;19.04;68.34;99070.61;1714198;82;22251;-44
2021/06/30 01:00:25;;;;;;;9.63;6.00;;;;;;;19.00;68.86;99074.03;1718157;82;21001;-43
2021/06/30 01:02:52;;;;;;;7.33;5.97;;;;;;;18.96;69.08;99065.09;1680727;83;21014;-43
2021/06/30 01:05:18;;;;;;;7.00;6.15;;;;;;;18.91;69.27;99057.34;1714881;82;21075;-44
2021/06/30 01:07:46;;;;;;;7.20;5.75;;;;;;;18.87;69.46;99063.51;1704812;82;21154;-44
2021/06/30 01:10:13;;;;;;;7.45;6.00;;;;;;;18.82;69.63;99059.88;1709993;82;20957;-43
2021/06/30 01:12:39;;;;;;;6.62;5.92;;;;;;;18.78;69.60;99066.81;1699290;83;21553;-44
2021/06/30 01:15:08;;;;;;;7.08;5.87;;;;;;;18.73;69.69;99070.05;1714153;82;21028;-43
2021/06/30 01:17:35;;;;;;;8.18;6.15;;;;;;;18.62;69.93;99067.50;1715838;82;21048;-44
2021/06/30 01:20:03;;;;;;;6.87;5.60;;;;;;;18.59;70.08;99071.06;1711119;82;21146;-44
2021/06/30 01:22:30;;;;;;;6.20;5.60;;;;;;;18.64;69.95;99078.81;1698575;83;21419;-44
2021/06/30 01:24:56;;;;;;;7.58;5.53;;;;;;;18.74;69.40;99067.45;1683297;83;21108;-43
2021/06/30 01:27:25;;;;;;;8.25;5.83;;;;;;;18.81;68.83;99062.44;1718251;82;21486;-43
2021/06/30 01:29:52;;;;;;;6.00;5.40;;;;;;;18.68;68.86;99038.18;1706140;83;21601;-43
2021/06/30 01:32:19;;;;;;;6.83;5.92;;;;;;;18.83;68.88;99073.16;1695936;82;21615;-43
2021/06/30 01:34:47;;;;;;;7.17;6.37;;;;;;;18.83;68.81;99064.92;1715142;82;21022;-43
2021/06/30 01:37:13;;;;;;;8.25;5.05;;;;;;;18.85;68.68;99061.77;1762879;80;21032;-44
2021/06/30 01:39:40;;;;;;;9.15;5.87;;;;;;;18.87;68.53;99064.88;1749832;80;21084;-43
2021/06/30 01:42:08;;;;;;;7.50;5.30;;;;;;;18.93;68.41;99057.67;1763398;80;21099;-44
2021/06/30 01:44:35;;;;;;;5.70;5.20;;;;;;;18.93;68.52;99063.17;1761698;80;21781;-44
2021/06/30 01:47:02;;;;;;;5.97;5.37;;;;;;;18.92;68.49;99051.44;1751843;80;21043;-43
2021/06/30 01:49:29;;;;;;;7.30;5.90;;;;;;;18.93;68.45;99052.18;1748067;80;21061;-43
2021/06/30 01:51:56;;;;;;;7.33;5.62;;;;;;;18.90;68.56;99061.28;1733188;80;21386;-44
2021/06/30 01:54:22;;;;;;;6.42;5.50;;;;;;;18.89;68.50;99059.12;1704988;83;21834;-43
2021/06/30 01:56:49;;;;;;;7.50;6.05;;;;;;;18.63;68.44;99015.52;1692789;83;21134;-44
2021/06/30 01:59:17;;;;;;;6.30;5.70;;;;;;;18.94;68.26;99058.64;1747270;80;21060;-43
2021/06/30 02:01:44;;;;;;;6.22;5.62;;;;;;;18.95;68.43;99062.16;1747572;80;20997;-43
2021/06/30 02:04:10;;;;;;;8.15;5.28;;;;;;;18.94;68.28;99066.09;1759224;80;20988;-43
2021/06/30 02:06:41;;;;;;;6.75;4.90;;;;;;;18.95;68.08;99067.66;1727474;80;21099;-44
2021/06/30 02:09:11;;;;;;;6.83;4.70;;;;;;;18.94;67.54;99074.34;1753563;80;21123;-44
2021/06/30 02:11:39;;;;;;;6.85;4.60;;;;;;;18.92;67.44;99068.51;1764093;80;21020;-44
2021/06/30 02:14:07;;;;;;;5.10;4.58;;;;;;;18.94;67.29;99068.84;1758148;80;21268;-43
2021/06/30 02:16:35;;;;;;;5.85;5.28;;;;;;;18.99;66.78;99072.48;1758818;80;21564;-44
2021/06/30 02:19:06;;;;;;;9.00;5.35;;;;;;;19.01;66.71;99072.84;1764102;80;21053;-43
2021/06/30 02:21:33;;;;;;;9.28;5.42;;;;;;;19.01;66.95;99071.47;1759182;80;21098;-44
2021/06/30 02:24:01;;;;;;;7.70;5.42;;;;;;;19.03;67.18;99077.30;1743284;80;20981;-44
2021/06/30 02:26:28;;;;;;;6.12;5.53;;;;;;;19.05;67.41;99079.03;1752892;80;21044;-43
2021/06/30 02:28:56;;;;;;;9.33;5.60;;;;;;;19.07;67.72;99079.40;1762898;80;21027;-43
2021/06/30 02:31:23;;;;;;;5.78;4.92;;;;;;;19.09;67.76;99079.14;1755807;80;21645;-44
2021/06/30 02:33:50;;;;;;;10.25;4.97;;;;;;;19.16;67.58;99076.08;1762673;80;21181;-44
2021/06/30 02:36:18;;;;;;;6.00;5.12;;;;;;;19.20;67.53;99077.55;1752633;80;21099;-44
2021/06/30 02:38:47;;;;;;;6.60;5.40;;;;;;;19.24;67.62;99081.00;1733172;80;20946;-44
2021/06/30 02:41:14;;;;;;;7.80;5.58;;;;;;;19.27;67.53;99077.39;1760927;80;21013;-44
2021/06/30 02:43:41;;;;;;;6.95;5.58;;;;;;;19.28;67.61;99085.05;1763974;80;21076;-43
2021/06/30 02:46:09;;;;;;;5.78;5.15;;;;;;;19.31;67.62;99086.36;1767762;80;21802;-43
2021/06/30 02:48:36;;;;;;;6.47;5.40;;;;;;;19.34;67.65;99088.84;1757917;80;21047;-44
2021/06/30 02:51:04;;;;;;;6.70;5.45;;;;;;;19.41;67.62;99087.34;1734429;80;20989;-44
2021/06/30 02:53:30;;;;;;;6.17;5.53;;;;;;;19.47;67.63;99086.42;1724917;80;20973;-44
2021/06/30 02:56:01;;;;;;;7.12;5.80;;;;;;;19.51;67.96;99084.37;1753392;80;21048;-43
2021/06/30 02:58:27;;;;;;;8.65;6.28;;;;;;;19.57;68.03;99082.49;1758662;80;21132;-43
2021/06/30 03:00:55;;;;;;;5.75;5.15;;;;;;;19.60;67.96;99088.53;1765622;80;20961;-44
2021/06/30 03:03:22;;;;;;;7.25;5.28;;;;;;;19.62;68.01;99083.36;1760062;80;20952;-44
2021/06/30 03:05:48;;;;;;;7.90;5.20;;;;;;;19.70;67.89;99082.02;1747517;80;21048;-44
2021/06/30 03:08:15;;;;;;;6.80;6.10;;;;;;;19.80;67.85;99081.02;1739590;80;21052;-44
2021/06/30 03:10:42;;;;;;;7.47;5.72;;;;;;;19.85;67.93;99085.97;1755662;80;21065;-45
2021/06/30 03:13:08;;;;;;;6.40;5.72;;;;;;;19.91;67.86;99089.17;1752850;80;20974;-45
2021/06/30 03:15:35;;;;;;;7.00;6.05;;;;;;;19.92;67.74;99090.73;1743057;80;22498;-45
2021/06/30 03:18:03;;;;;;;6.97;5.40;;;;;;;19.91;68.04;99090.55;1700976;82;21451;-45
2021/06/30 03:20:31;;;;;;;8.20;5.45;;;;;;;19.97;68.20;99090.81;1697727;83;21888;-45
2021/06/30 03:22:57;;;;;;;6.12;5.20;;;;;;;20.07;67.96;99097.27;1743881;80;21158;-44
2021/06/30 03:25:26;;;;;;;6.45;4.87;;;;;;;20.11;68.14;99088.33;1720361;80;21016;-44
2021/06/30 03:27:54;;;;;;;;;;;;;;;20.16;68.10;99090.56;1742590;81;21041;-45
2021/06/30 03:30:21;;;;;;;6.08;5.47;;;;;;;20.18;67.58;99097.20;1740763;82;20194;-45
2021/06/30 03:32:49;;;;;;;6.15;5.55;;;;;;;20.10;67.86;99097.78;1753911;81;20969;-45
2021/06/30 03:35:16;;;;;;;7.12;5.05;;;;;;;20.16;67.81;99094.09;1744079;80;21132;-45
2021/06/30 03:37:43;;;;;;;6.25;5.30;;;;;;;20.27;67.55;99101.50;1743134;81;21032;-45
2021/06/30 03:40:12;;;;;;;7.40;5.65;;;;;;;20.32;67.39;99094.13;1726455;83;21620;-45
2021/06/30 03:42:39;;;;;;;6.35;5.53;;;;;;;20.36;67.53;99089.30;1749502;81;21571;-45
2021/06/30 03:45:07;;;;;;;6.33;5.72;;;;;;;20.39;67.39;99098.06;1750674;81;20933;-45
2021/06/30 03:47:35;;;;;;;7.42;5.67;;;;;;;20.40;67.51;99094.71;1756579;81;21117;-45
2021/06/30 03:50:04;;;;;;;5.83;5.22;;;;;;;20.41;67.68;99102.37;1755546;81;21017;-45
2021/06/30 03:52:31;;;;;;;7.45;5.00;;;;;;;20.51;67.67;99106.84;1691963;84;21000;-45
2021/06/30 03:54:58;;;;;;;5.85;5.28;;;;;;;20.58;67.74;99100.53;1696970;82;21017;-45
2021/06/30 03:57:25;;;;;;;9.28;5.33;;;;;;;20.66;67.81;99101.14;1717345;83;21550;-45
2021/06/30 03:59:52;;;;;;;7.03;5.65;;;;;;;20.72;67.84;99103.55;1710788;83;21188;-45
2021/06/30 04:02:19;;;;;;;6.03;5.17;;;;;;;20.77;67.71;99107.13;1697808;83;21068;-45
2021/06/30 04:04:46;;;;;;;9.05;5.15;;;;;;;20.85;67.50;99108.50;1690870;83;21052;-45
2021/06/30 04:07:14;;;;;;;8.40;5.20;;;;;;;20.95;67.28;99112.95;1706990;82;21543;-45
2021/06/30 04:09:42;;;;;;;5.83;5.22;;;;;;;21.05;67.19;99113.27;1696981;83;21526;-45
2021/06/30 04:12:10;;;;;;;5.78;4.90;;;;;;;21.13;67.11;99113.84;1726007;82;21103;-45
2021/06/30 04:14:36;;;;;;;8.70;5.30;;;;;;;21.21;66.93;99116.58;1705289;82;20952;-45
2021/06/30 04:17:05;;;;;;;7.22;5.25;;;;;;;21.29;66.69;99121.31;1695720;83;20984;-45
2021/06/30 04:19:31;;;;;;;9.23;5.12;;;;;;;21.35;66.71;99114.05;1692641;83;21036;-45
2021/06/30 04:21:58;;;;;;;5.60;4.75;;;;;;;21.41;66.82;99116.42;1691643;84;21087;-45
2021/06/30 04:24:25;;;;;;;5.92;4.65;;;;;;;21.51;66.69;99109.81;1696938;83;21842;-45
2021/06/30 04:26:51;;;;;;;8.53;5.25;;;;;;;21.62;66.53;99114.42;1702641;84;20926;-45
2021/06/30 04:29:18;;;;;;;7.80;5.22;;;;;;;21.71;66.34;99109.02;1703976;82;20983;-45
2021/06/30 04:31:45;;;;;;;7.12;5.80;;;;;;;21.79;66.14;99113.70;1671584;83;21681;-45
2021/06/30 04:34:12;;;;;;;5.42;4.28;;;;;;;21.84;65.94;99112.55;1680677;83;21029;-46
2021/06/30 04:36:39;;;;;;;5.08;4.40;;;;;;;21.90;64.58;99119.08;1685128;84;22034;-46
2021/06/30 04:39:07;;;;;;;6.97;4.35;;;;;;;21.95;64.30;99121.92;1664275;85;21072;-46
2021/06/30 04:41:33;;;;;;;4.75;4.22;;;;;;;22.00;64.98;99119.98;1723537;80;21024;-45
2021/06/30 04:44:00;;;;;;;6.83;4.75;;;;;;;22.04;65.56;99119.27;1731558;80;21053;-45
2021/06/30 04:46:27;;;;;;;5.10;4.60;;;;;;;22.09;65.59;99117.33;1734008;80;21002;-45
2021/06/30 04:48:53;;;;;;;5.60;4.67;;;;;;;22.16;65.19;99123.25;1736790;81;21098;-46
2021/06/30 04:51:21;;;;;;;6.90;4.70;;;;;;;22.20;64.93;99121.91;1702474;82;21019;-46
2021/06/30 04:53:50;;;;;;;5.87;4.53;;;;;;;22.21;64.79;99128.22;1736746;81;21005;-46
2021/06/30 04:56:16;;;;;;;4.78;4.37;;;;;;;22.20;65.14;99115.01;1729857;82;21037;-45
2021/06/30 04:58:45;;;;;;;5.03;4.53;;;;;;;22.22;65.82;99118.08;1703186;83;21048;-45
2021/06/30 05:01:12;;;;;;;5.80;4.55;;;;;;;22.31;65.79;99112.69;1697439;83;21154;-45
2021/06/30 05:03:39;;;;;;;5.35;4.85;;;;;;;22.42;65.31;99117.84;1721405;82;21841;-45
2021/06/30 05:06:05;;;;;;;4.85;4.35;;;;;;;22.50;65.09;99124.69;1705655;82;21215;-45
2021/06/30 05:08:34;;;;;;;9.50;5.20;;;;;;;22.54;64.82;99119.20;1712707;83;20961;-45
2021/06/30 05:11:00;;;;;;;6.12;4.65;;;;;;;22.58;64.43;99123.22;1712371;83;21056;-45
2021/06/30 05:13:28;;;;;;;6.62;4.65;;;;;;;22.64;63.96;99121.45;1714334;83;21146;-45
2021/06/30 05:15:55;;;;;;;5.58;4.33;;;;;;;22.68;63.72;99113.03;1705148;83;21087;-45
2021/06/30 05:18:22;;;;;;;6.33;4.40;;;;;;;22.74;64.02;99114.81;1714238;83;21025;-45
2021/06/30 05:20:49;;;;;;;6.37;4.37;;;;;;;22.86;63.88;99111.22;1715233;83;20997;-45
2021/06/30 05:23:16;;;;;;;4.92;4.22;;;;;;;23.00;63.81;99116.08;1702080;82;21083;-45
2021/06/30 05:25:43;;;;;;;7.72;4.72;;;;;;;23.09;62.76;99112.03;1686299;85;21103;-45
2021/06/30 05:28:09;;;;;;;7.17;4.40;;;;;;;23.20;62.74;99109.63;1694537;83;21926;-45
2021/06/30 05:30:36;;;;;;;4.80;3.70;;;;;;;23.29;62.05;99108.30;1746954;82;21013;-45
2021/06/30 05:33:03;;;;;;;4.25;3.62;;;;;;;23.38;60.75;99107.00;1715067;83;21063;-45
2021/06/30 05:35:31;;;;;;;5.30;3.40;;;;;;;23.47;60.79;99108.47;1712002;83;21491;-45
2021/06/30 05:37:57;;;;;;;4.78;3.20;;;;;;;23.52;60.63;99110.66;1713497;83;21931;-45
2021/06/30 05:40:24;;;;;;;3.40;3.10;;;;;;;23.57;58.80;99103.14;1750276;82;20930;-45
2021/06/30 05:42:51;;;;;;;5.03;3.17;;;;;;;23.64;58.03;99107.02;1746687;81;21148;-46
2021/06/30 05:45:19;;;;;;;4.47;3.12;;;;;;;23.70;57.60;99107.97;1696335;83;21028;-44
2021/06/30 05:47:46;;;;;;;5.08;3.45;;;;;;;23.76;57.18;99106.77;1713950;83;21035;-44
2021/06/30 05:50:13;;;;;;;4.97;3.25;;;;;;;23.82;57.38;99109.08;1737225;81;22126;-44
2021/06/30 05:52:40;;;;;;;5.80;3.67;;;;;;;23.88;57.13;99107.27;1745273;81;21068;-44
2021/06/30 05:55:09;;;;;;;3.42;3.12;;;;;;;23.93;56.86;99112.83;1736565;80;21028;-44
2021/06/30 05:57:36;;;;;;;6.45;3.30;;;;;;;23.98;56.28;99113.00;1695497;83;21028;-44
2021/06/30 06:00:13;;;;;;;4.87;3.10;;;;;;;24.04;55.39;99105.65;1748713;82;21650;-44
2021/06/30 06:02:40;;;;;;;4.70;3.20;;;;;;;24.11;56.25;99118.42;1721343;82;21947;-44
2021/06/30 06:05:08;;;;;;;4.42;3.20;;;;;;;24.16;56.47;99116.44;1725971;82;21581;-43
2021/06/30 06:07:35;;;;;;;4.72;3.50;;;;;;;24.22;56.99;99121.58;1728949;82;20985;-44
2021/06/30 06:10:02;;;;;;;3.27;2.98;;;;;;;24.29;56.72;99119.14;1701866;82;21052;-44
2021/06/30 06:12:30;;;;;;;3.72;3.30;;;;;;;24.31;56.05;99120.21;1698545;83;21597;-44
2021/06/30 06:14:57;;;;;;;4.37;3.92;;;;;;;24.35;56.36;99124.98;1744862;82;21832;-44
2021/06/30 06:17:23;;;;;;;3.65;3.35;;;;;;;24.37;56.66;99123.92;1750206;82;21008;-44
2021/06/30 06:19:50;;;;;;;4.05;3.45;;;;;;;24.38;57.25;99111.62;1713197;82;21068;-44
2021/06/30 06:22:16;;;;;;;4.35;3.83;;;;;;;24.41;57.15;99117.62;1736580;80;21080;-44
2021/06/30 06:24:43;;;;;;;4.03;3.70;;;;;;;24.45;57.80;99109.92;1729869;80;21646;-44
2021/06/30 06:27:11;;;;;;;3.77;3.15;;;;;;;24.48;57.98;99109.64;1736984;82;21134;-44
2021/06/30 06:29:38;;;;;;;4.28;3.52;;;;;;;24.54;57.92;99121.66;1728541;80;21574;-44
2021/06/30 06:32:07;;;;;;;5.78;3.20;;;;;;;24.60;57.70;99109.49;1743239;80;20969;-44
2021/06/30 06:34:34;;;;;;;5.12;2.75;;;;;;;24.68;56.91;99105.81;1732941;80;20952;-44
2021/06/30 06:37:02;;;;;;;4.33;3.47;;;;;;;24.75;56.64;99102.73;1740776;81;21045;-44
2021/06/30 06:39:28;;;;;;;6.70;3.40;;;;;;;24.84;56.87;99103.34;1721582;82;21776;-44
2021/06/30 06:41:55;;;;;;;3.77;3.15;;;;;;;24.94;56.93;99098.75;1720068;80;21057;-44
2021/06/30 06:44:22;;;;;;;3.60;3.08;;;;;;;25.00;56.55;99104.45;1713733;82;20970;-44
2021/06/30 06:47:37;;;;;;;3.30;2.47;;;;;;;25.13;56.32;99102.28;1799229;78;22734;-43
2021/06/30 06:50:05;;;;;;;2.52;2.33;;;;;;;25.15;53.49;99105.38;1751810;80;20948;-44
2021/06/30 06:52:32;;;;;;;4.40;2.72;;;;;;;25.25;52.72;99118.00;1748014;80;21828;-44
2021/06/30 06:55:00;;;;;;;2.98;2.45;;;;;;;25.32;51.20;99112.11;1734920;80;20937;-44
2021/06/30 06:57:27;;;;;;;3.75;2.65;;;;;;;25.37;51.84;99112.10;1755268;81;20969;-44
2021/06/30 06:59:53;;;;;;;4.22;2.55;;;;;;;25.41;50.39;99101.64;1752469;80;21000;-44
2021/06/30 07:02:20;;;;;;;3.70;2.40;;;;;;;25.48;51.29;99106.23;1750910;80;21534;-44
2021/06/30 07:04:47;;;;;;;2.52;2.15;;;;;;;25.57;49.27;99109.63;1747765;80;21045;-44
2021/06/30 07:07:14;;;;;;;2.30;2.10;;;;;;;25.61;48.13;99101.16;1752949;80;21939;-44
2021/06/30 07:09:40;;;;;;;3.22;2.33;;;;;;;25.64;47.42;99101.59;1742014;80;21016;-44
2021/06/30 07:12:07;;;;;;;3.20;2.30;;;;;;;25.67;48.06;99101.42;1742480;80;21115;-44
2021/06/30 07:14:34;;;;;;;6.12;2.15;;;;;;;25.74;48.49;99095.55;1730887;80;21032;-44
2021/06/30 07:17:01;;;;;;;2.90;2.60;;;;;;;25.82;47.91;99101.52;1749504;80;21955;-44
2021/06/30 07:19:28;;;;;;;3.40;2.22;;;;;;;25.88;48.38;99102.43;1748808;80;21036;-44
2021/06/30 07:21:55;;;;;;;2.65;2.05;;;;;;;25.95;49.28;99102.08;1749923;80;20965;-44
2021/06/30 07:24:22;;;;;;;3.85;2.20;;;;;;;26.05;47.26;99102.80;1743253;80;21024;-44
2021/06/30 07:26:48;;;;;;;4.62;2.20;;;;;;;26.13;48.52;99100.63;1743442;80;21648;-44
2021/06/30 07:29:15;;;;;;;3.40;1.98;;;;;;;26.24;47.99;99099.49;1754093;80;21081;-44
2021/06/30 07:31:41;;;;;;;2.30;2.02;;;;;;;26.38;47.59;99099.44;1744036;80;21059;-44
2021/06/30 07:34:08;;;;;;;2.42;2.00;;;;;;;26.52;47.70;99093.16;1747391;80;21553;-44
2021/06/30 07:36:34;;;;;;;2.35;2.12;;;;;;;26.62;46.59;99100.20;1751668;80;21044;-44
2021/06/30 07:39:01;;;;;;;1.87;1.77;;;;;;;26.69;45.97;99099.05;1741405;81;21578;-44
2021/06/30 07:41:27;;;;;;;1.87;1.70;;;;;;;26.74;44.93;99095.61;1754836;80;21296;-44
2021/06/30 07:43:54;;;;;;;3.00;2.10;;;;;;;26.81;45.03;99102.22;1737109;80;21013;-44
2021/06/30 07:46:21;;;;;;;2.98;2.20;;;;;;;26.86;44.98;99098.80;1698215;83;21001;-44
2021/06/30 07:48:49;;;;;;;2.80;2.50;;;;;;;26.96;45.11;99096.09;1696826;84;21034;-44
2021/06/30 07:51:17;;;;;;;2.92;2.62;;;;;;;27.05;45.93;99098.79;1737245;81;20997;-44
2021/06/30 07:53:44;;;;;;;2.67;2.40;;;;;;;27.15;47.23;99100.25;1733579;81;21143;-44
2021/06/30 07:56:11;;;;;;;4.78;2.40;;;;;;;27.21;46.53;99098.31;1715794;81;20985;-44
2021/06/30 07:58:39;;;;;;;2.50;2.30;;;;;;;27.27;46.87;99099.03;1738084;81;21073;-44
2021/06/30 08:01:06;;;;;;;3.67;2.30;;;;;;;27.33;47.66;99105.48;1730495;81;20965;-44
2021/06/30 08:03:33;;;;;;;4.92;2.40;;;;;;;27.41;47.96;99100.43;1734865;81;21001;-44
2021/06/30 08:06:00;;;;;;;2.50;2.20;;;;;;;27.54;46.13;99102.36;1738946;81;21086;-44
2021/06/30 08:08:27;;;;;;;3.12;2.47;;;;;;;27.64;45.84;99101.63;1734747;81;21781;-44
2021/06/30 08:10:54;;;;;;;3.10;2.80;;;;;;;27.73;46.03;99106.31;1736321;82;21013;-44
2021/06/30 08:13:21;;;;;;;3.47;2.75;;;;;;;27.77;45.35;99103.48;1739355;82;21026;-44
2021/06/30 08:15:48;;;;;;;2.95;2.62;;;;;;;27.79;44.95;99109.97;1721761;80;21921;-45
2021/06/30 08:18:15;;;;;;;4.12;2.70;;;;;;;27.85;44.21;99109.41;1736236;80;21191;-44
2021/06/30 08:20:43;;;;;;;4.28;2.85;;;;;;;27.85;45.29;99108.78;1736453;82;21024;-44
2021/06/30 08:23:09;;;;;;;3.75;2.75;;;;;;;27.93;45.76;99101.55;1729024;80;21021;-44
2021/06/30 08:25:36;;;;;;;3.25;2.70;;;;;;;28.02;44.99;99108.43;1725354;81;21077;-45
2021/06/30 08:28:04;;;;;;;3.95;2.52;;;;;;;28.08;43.87;99103.69;1719380;80;21108;-44
2021/06/30 08:30:31;;;;;;;4.00;2.52;;;;;;;28.16;44.34;99104.72;1718917;80;21104;-44
2021/06/30 08:32:58;;;;;;;3.22;2.92;;;;;;;28.29;44.05;99101.73;1714350;82;20998;-44
2021/06/30 08:35:25;;;;;;;2.83;2.58;;;;;;;28.39;43.04;99099.59;1722495;82;21455;-44
2021/06/30 08:37:54;;;;;;;3.75;2.72;;;;;;;28.44;43.53;99102.45;1711805;82;20972;-44
2021/06/30 08:40:20;;;;;;;3.55;2.98;;;;;;;28.58;43.39;99102.87;1734975;80;21069;-45
2021/06/30 08:42:46;;;;;;;3.83;3.22;;;;;;;28.71;43.59;99104.07;1733174;82;21111;-45
2021/06/30 08:45:13;;;;;;;5.15;3.00;;;;;;;28.81;44.24;99100.51;1727850;82;21421;-45
2021/06/30 08:47:42;;;;;;;3.33;3.02;;;;;;;28.71;43.44;99076.80;1718581;82;21026;-45
2021/06/30 08:50:11;;;;;;;4.35;3.05;;;;;;;28.99;42.77;99107.83;1723948;82;21551;-44
2021/06/30 08:52:38;;;;;;;4.15;3.00;;;;;;;29.00;42.91;99098.95;1736180;82;21005;-44
2021/06/30 08:55:09;;;;;;;3.17;2.47;;;;;;;29.02;42.88;99092.88;1739837;81;21100;-44
2021/06/30 08:57:36;;;;;;;3.87;2.37;;;;;;;29.02;42.07;99091.48;1734469;81;21072;-44
2021/06/30 09:00:06;;;;;;;2.58;2.37;;;;;;;29.04;40.97;99095.96;1734388;81;21021;-44
2021/06/30 09:02:32;;;;;;;4.87;2.47;;;;;;;29.06;40.46;99090.64;1728248;82;22202;-44
2021/06/30 09:05:14;;;;;;;2.60;2.40;;;;;;;29.18;41.15;99093.70;1694854;84;21052;-44
2021/06/30 09:07:40;;;;;;;2.27;1.92;;;;;;;29.24;41.22;99093.13;1686633;84;21082;-44
2021/06/30 09:10:30;;;;;;;4.50;2.40;;;;;;;29.25;41.14;99089.82;1724051;81;20918;-44
2021/06/30 09:12:57;;;;;;;2.00;1.90;;;;;;;29.34;40.71;99087.52;1725365;81;21488;-44
2021/06/30 09:15:35;;;;;;;3.47;2.10;;;;;;;29.40;37.72;99091.12;1743742;82;21029;-44
2021/06/30 09:18:28;;;;;;;4.22;2.02;;;;;;;29.41;37.86;99087.71;1741505;82;21053;-44
2021/06/30 09:21:24;;;;;;;2.98;1.87;;;;;;;29.46;38.32;99086.37;1736194;81;21129;-44
2021/06/30 09:24:17;;;;;;;2.02;1.82;;;;;;;29.29;38.23;99054.69;1732370;81;20966;-44
2021/06/30 09:26:54;;;;;;;2.15;1.95;;;;;;;29.53;39.03;99087.30;1742629;82;20910;-44
2021/06/30 09:29:21;;;;;;;2.72;2.02;;;;;;;29.62;39.22;99076.60;1731236;80;21516;-44
2021/06/30 09:31:52;;;;;;;2.75;1.95;;;;;;;29.77;39.05;99082.16;1737647;80;21022;-44
2021/06/30 09:34:21;;;;;;;3.92;2.40;;;;;;;29.90;37.97;99072.00;1681630;83;21125;-44
2021/06/30 09:37:04;;;;;;;3.35;2.17;;;;;;;30.01;38.42;99072.72;1706496;82;20969;-44
2021/06/30 09:39:28;;;;;;;2.98;2.40;;;;;;;30.12;37.63;99069.97;1732448;80;20946;-44
2021/06/30 09:42:09;;;;;;;3.35;2.30;;;;;;;30.22;38.25;99067.10;1733837;80;21017;-44
2021/06/30 09:44:37;;;;;;;5.03;2.33;;;;;;;30.32;38.25;99071.22;1682119;82;21048;-44
2021/06/30 09:47:05;;;;;;;4.47;3.05;;;;;;;30.36;37.79;99070.34;1718246;82;21610;-44
2021/06/30 09:49:33;;;;;;;2.87;2.60;;;;;;;30.33;36.30;99067.80;1746336;80;21017;-44
2021/06/30 09:52:10;;;;;;;3.60;2.90;;;;;;;30.32;37.69;99068.42;1741133;80;20976;-44
2021/06/30 09:54:39;;;;;;;4.25;2.62;;;;;;;30.38;37.42;99066.43;1740237;81;21547;-44
2021/06/30 09:57:08;;;;;;;2.95;2.60;;;;;;;30.33;37.16;99062.97;1725355;82;21036;-44
2021/06/30 09:59:38;;;;;;;3.55;2.42;;;;;;;30.26;37.79;99069.69;1680268;84;21123;-44
2021/06/30 10:02:16;;;;;;;3.87;3.25;;;;;;;30.18;38.22;99068.74;1689384;83;21577;-43
2021/06/30 10:04:45;;;;;;;3.47;3.10;;;;;;;30.13;38.28;99063.88;1695993;83;21013;-44
2021/06/30 10:07:16;;;;;;;3.55;3.17;;;;;;;30.05;38.08;99068.42;1707774;83;21091;-44
2021/06/30 10:09:55;;;;;;;3.47;2.87;;;;;;;30.02;38.54;99068.00;1704443;83;20991;-44
2021/06/30 10:12:26;;;;;;;5.20;2.80;;;;;;;29.96;40.34;99063.03;1691019;83;21098;-44
2021/06/30 10:14:54;;;;;;;5.60;2.87;;;;;;;29.95;37.81;99063.52;1698120;83;21539;-44
2021/06/30 10:17:22;;;;;;;4.03;2.80;;;;;;;29.91;37.83;99062.99;1697280;83;21579;-44
2021/06/30 10:19:51;;;;;;;3.52;3.22;;;;;;;29.89;38.59;99064.11;1695291;84;21547;-44
2021/06/30 10:22:18;;;;;;;5.13;3.30;;;;;;;29.99;38.33;99059.86;1692496;83;21057;-44
2021/06/30 10:24:45;;;;;;;3.40;3.10;;;;;;;30.11;39.68;99059.41;1692185;84;21169;-44
2021/06/30 10:27:13;;;;;;;4.12;3.40;;;;;;;30.26;38.84;99057.84;1690456;83;21634;-44
2021/06/30 10:29:44;;;;;;;3.33;3.02;;;;;;;30.34;39.06;99067.94;1712068;83;21084;-44
2021/06/30 10:32:14;;;;;;;3.17;2.87;;;;;;;30.39;39.26;99063.00;1707577;83;20966;-44
2021/06/30 10:34:57;;;;;;;3.45;3.15;;;;;;;30.49;37.10;99058.13;1701882;83;21027;-44
2021/06/30 10:37:29;;;;;;;4.15;2.72;;;;;;;30.62;36.27;99054.22;1693208;83;21101;-44
2021/06/30 10:40:07;;;;;;;3.85;2.67;;;;;;;30.73;37.97;99054.89;1693801;83;21049;-44
2021/06/30 10:42:42;;;;;;;2.42;2.20;;;;;;;30.91;35.68;99050.86;1695865;83;20942;-45
2021/06/30 10:45:17;;;;;;;4.92;2.40;;;;;;;31.10;34.92;99050.54;1738584;80;21018;-44
2021/06/30 10:48:10;;;;;;;3.80;2.70;;;;;;;31.32;35.30;99043.55;1711247;82;21087;-45
2021/06/30 10:50:45;;;;;;;3.15;2.85;;;;;;;31.50;33.52;99037.45;1707087;83;21103;-45
2021/06/30 10:53:30;;;;;;;3.42;3.12;;;;;;;31.54;34.59;99033.63;1715943;83;20986;-45
2021/06/30 10:55:59;;;;;;;3.10;2.72;;;;;;;31.56;34.77;99028.28;1698509;82;20938;-45
2021/06/30 10:58:29;;;;;;;3.05;2.65;;;;;;;31.68;35.61;99027.02;1699818;82;21071;-48
2021/06/30 11:01:04;;;;;;;;;;;;;;;31.88;35.52;99024.69;1694575;82;21107;-45
2021/06/30 11:03:49;;;;;;;2.98;2.77;;;;;;;32.05;34.26;99007.80;1690572;84;21353;-50
2021/06/30 11:06:24;;;;;;;;;;;;;;;32.11;33.46;99007.18;1716218;82;21520;-47
2021/06/30 11:09:10;;;;;;;4.70;2.98;;;;;;;32.27;34.20;99007.77;1688249;84;20129;-47
2021/06/30 11:11:53;;;;;;;3.67;2.60;;;;;;;32.42;34.98;99015.10;1686436;83;21135;-47
2021/06/30 11:14:23;;;;;;;3.98;2.50;;;;;;;32.59;33.37;98998.93;1662450;85;21030;-47
2021/06/30 11:16:54;;;;;;;2.52;2.33;;;;;;;32.77;33.12;98996.95;1654864;82;20998;-46
2021/06/30 11:19:27;;;;;;;3.55;2.50;;;;;;;32.87;32.81;98996.77;1697201;83;20996;-46
2021/06/30 11:22:08;;;;;;;4.60;2.62;;;;;;;33.00;32.79;98994.11;1713741;82;21551;-46
2021/06/30 11:24:40;;;;;;;3.58;2.50;;;;;;;33.17;33.75;98994.00;1714833;82;21568;-45
2021/06/30 11:27:20;;;;;;;3.67;2.47;;;;;;;33.49;33.72;98986.58;1682106;83;21115;-46
2021/06/30 11:29:58;;;;;;;3.35;2.83;;;;;;;33.80;32.57;98985.25;1689528;83;21523;-44
2021/06/30 11:32:42;;;;;;;5.33;2.45;;;;;;;33.92;30.92;98978.23;1693776;83;21511;-44
2021/06/30 11:35:19;;;;;;;2.90;2.58;;;;;;;33.94;31.57;98972.82;1693753;83;21500;-44
2021/06/30 11:37:56;;;;;;;2.12;1.95;;;;;;;34.12;31.55;98969.18;1732847;82;20937;-45
2021/06/30 11:40:30;;;;;;;2.92;2.65;;;;;;;34.21;31.37;98971.00;1690034;84;21073;-45
2021/06/30 11:42:53;;;;;;;2.52;2.05;;;;;;;34.33;31.76;98974.42;1682099;84;21036;-45